createdAt,value
2018-11-12T00:02:25.798Z,11.10
2018-11-12T00:04:54.185Z,11.00
2018-11-12T00:07:22.415Z,11.00
2018-11-12T00:09:50.599Z,11.00
2018-11-12T00:12:18.826Z,11.00
2018-11-12T00:14:47.138Z,11.00
2018-11-12T00:17:15.654Z,11.00
2018-11-12T00:19:44.341Z,11.00
2018-11-12T00:23:43.981Z,10.90
2018-11-12T00:26:12.461Z,11.00
2018-11-12T00:28:40.800Z,11.00
2018-11-12T00:31:09.234Z,11.00
2018-11-12T00:33:37.574Z,10.90
2018-11-12T00:36:05.884Z,10.90
2018-11-12T00:38:34.206Z,10.80
2018-11-12T00:41:02.499Z,10.80
2018-11-12T00:43:30.814Z,10.80
2018-11-12T00:45:59.141Z,10.80
2018-11-12T00:48:27.468Z,10.90
2018-11-12T00:50:55.779Z,10.90
2018-11-12T00:53:24.112Z,10.90
2018-11-12T00:55:52.427Z,11.00
2018-11-12T00:58:20.762Z,11.00
2018-11-12T01:00:49.120Z,11.10
2018-11-12T01:03:17.527Z,11.20
2018-11-12T01:05:45.918Z,11.10
2018-11-12T01:08:14.279Z,11.20
2018-11-12T01:10:42.579Z,11.20
2018-11-12T01:13:10.897Z,11.20
2018-11-12T01:15:39.231Z,11.20
2018-11-12T01:18:07.541Z,11.10
2018-11-12T01:20:35.874Z,11.10
2018-11-12T01:23:04.199Z,11.10
2018-11-12T01:25:32.549Z,11.20
2018-11-12T01:28:00.895Z,11.20
2018-11-12T01:30:29.229Z,11.30
2018-11-12T01:32:57.536Z,11.30
2018-11-12T01:35:25.852Z,11.30
2018-11-12T01:37:54.167Z,11.30
2018-11-12T01:40:22.493Z,11.30
2018-11-12T01:42:50.812Z,11.30
2018-11-12T01:45:20.490Z,11.40
2018-11-12T01:47:49.890Z,11.40
2018-11-12T01:50:18.857Z,11.40
2018-11-12T01:52:48.039Z,11.40
2018-11-12T01:55:17.717Z,11.40
2018-11-12T01:57:46.150Z,11.50
2018-11-12T02:00:17.730Z,11.50
2018-11-12T02:02:47.175Z,11.50
2018-11-12T02:05:15.834Z,11.50
2018-11-12T02:07:44.260Z,11.50
2018-11-12T02:10:13.913Z,11.60
2018-11-12T02:12:42.466Z,11.60
2018-11-12T02:15:13.900Z,11.50
2018-11-12T02:17:42.807Z,11.60
2018-11-12T02:20:12.616Z,11.50
2018-11-12T02:22:41.168Z,11.50
2018-11-12T02:25:10.294Z,11.50
2018-11-12T02:27:38.438Z,11.50
2018-11-12T02:30:10.147Z,11.50
2018-11-12T02:32:44.979Z,11.50
2018-11-12T02:35:13.259Z,11.40
2018-11-12T02:37:41.794Z,11.40
2018-11-12T02:40:11.791Z,11.30
2018-11-12T02:42:40.711Z,11.30
2018-11-12T02:45:09.763Z,11.20
2018-11-12T02:47:38.148Z,11.10
2018-11-12T02:50:07.510Z,11.10
2018-11-12T02:52:35.995Z,11.10
2018-11-12T02:55:04.994Z,11.00
2018-11-12T02:57:33.823Z,10.90
2018-11-12T03:00:02.065Z,10.90
2018-11-12T03:02:30.414Z,10.80
2018-11-12T03:04:58.726Z,10.80
2018-11-12T03:07:27.068Z,10.80
2018-11-12T03:09:55.377Z,10.80
2018-11-12T03:12:23.708Z,10.80
2018-11-12T03:14:52.036Z,10.80
2018-11-12T03:17:20.361Z,10.80
2018-11-12T03:19:48.716Z,10.80
2018-11-12T03:22:17.050Z,10.80
2018-11-12T03:24:45.391Z,10.80
2018-11-12T03:27:13.734Z,10.80
2018-11-12T03:29:42.092Z,10.70
2018-11-12T03:32:10.493Z,10.70
2018-11-12T03:34:38.822Z,10.70
2018-11-12T03:37:07.407Z,10.70
2018-11-12T03:39:35.841Z,10.70
2018-11-12T03:42:04.168Z,10.70
2018-11-12T03:44:32.511Z,10.60
2018-11-12T03:47:00.872Z,10.60
2018-11-12T03:49:29.243Z,10.60
2018-11-12T03:51:57.582Z,10.60
2018-11-12T03:54:25.962Z,10.60
2018-11-12T03:56:54.327Z,10.70
2018-11-12T03:59:22.666Z,10.60
2018-11-12T04:01:50.973Z,10.60
2018-11-12T04:04:19.306Z,10.50
2018-11-12T04:06:47.628Z,10.50
2018-11-12T04:09:15.949Z,10.60
2018-11-12T04:11:44.979Z,10.70
2018-11-12T04:14:19.823Z,10.70
2018-11-12T04:16:48.183Z,10.70
2018-11-12T04:19:16.831Z,10.80
2018-11-12T04:21:45.156Z,10.90
2018-11-12T04:24:13.475Z,10.90
2018-11-12T04:26:41.808Z,10.90
2018-11-12T04:29:10.118Z,10.90
2018-11-12T04:31:38.436Z,10.90
2018-11-12T04:34:06.877Z,10.90
2018-11-12T04:36:35.279Z,10.80
2018-11-12T04:39:04.247Z,10.80
2018-11-12T04:41:33.230Z,10.80
2018-11-12T04:44:01.575Z,10.80
2018-11-12T04:46:29.902Z,10.80
2018-11-12T04:48:58.223Z,10.80
2018-11-12T04:51:26.581Z,10.80
2018-11-12T04:53:54.900Z,10.70
2018-11-12T04:56:23.260Z,10.70
2018-11-12T04:58:51.591Z,10.70
2018-11-12T05:01:19.949Z,10.70
2018-11-12T05:03:48.282Z,10.60
2018-11-12T05:06:16.645Z,10.60
2018-11-12T05:08:44.969Z,10.60
2018-11-12T05:11:13.322Z,10.60
2018-11-12T05:13:41.640Z,10.60
2018-11-12T05:16:10.005Z,10.60
2018-11-12T05:18:38.972Z,10.50
2018-11-12T05:21:07.367Z,10.50
2018-11-12T05:23:35.684Z,10.50
2018-11-12T05:26:04.161Z,10.50
2018-11-12T05:28:32.586Z,10.50
2018-11-12T05:31:00.915Z,10.50
2018-11-12T05:33:29.291Z,10.50
2018-11-12T05:35:57.621Z,10.50
2018-11-12T05:38:26.072Z,10.50
2018-11-12T05:40:54.382Z,10.40
2018-11-12T05:43:22.794Z,10.40
2018-11-12T05:45:51.125Z,10.40
2018-11-12T05:48:19.523Z,10.30
2018-11-12T05:50:47.875Z,10.30
2018-11-12T05:53:16.220Z,10.30
2018-11-12T05:55:44.553Z,10.30
2018-11-12T05:58:12.884Z,10.40
2018-11-12T06:00:41.204Z,10.30
2018-11-12T06:03:09.549Z,10.30
2018-11-12T06:05:37.872Z,10.30
2018-11-12T06:08:06.245Z,10.30
2018-11-12T06:10:35.234Z,10.30
2018-11-12T06:13:03.584Z,10.20
2018-11-12T06:15:32.019Z,10.30
2018-11-12T06:18:00.383Z,10.20
2018-11-12T06:20:30.169Z,10.20
2018-11-12T06:22:58.582Z,10.20
2018-11-12T06:25:30.369Z,10.20
2018-11-12T06:27:58.792Z,10.20
2018-11-12T06:30:28.611Z,10.20
2018-11-12T06:32:56.935Z,10.20
2018-11-12T06:35:25.237Z,10.20
2018-11-12T06:37:53.998Z,10.20
2018-11-12T06:40:23.443Z,10.20
2018-11-12T06:42:52.137Z,10.20
2018-11-12T06:45:24.536Z,10.30
2018-11-12T06:47:53.761Z,10.20
2018-11-12T06:50:25.295Z,10.10
2018-11-12T06:52:53.731Z,10.20
2018-11-12T06:55:22.385Z,10.20
2018-11-12T06:57:50.891Z,10.20
2018-11-12T07:00:24.137Z,10.20
2018-11-12T07:02:52.575Z,10.20
2018-11-12T07:05:21.192Z,10.30
2018-11-12T07:07:49.603Z,10.20
2018-11-12T07:10:19.274Z,10.30
2018-11-12T07:12:48.353Z,10.30
2018-11-12T07:15:19.004Z,10.30
2018-11-12T07:17:47.291Z,10.30
2018-11-12T07:20:17.274Z,10.30
2018-11-12T07:22:45.812Z,10.30
2018-11-12T07:25:14.986Z,10.40
2018-11-12T07:27:43.223Z,10.40
2018-11-12T07:30:15.708Z,10.40
2018-11-12T07:32:44.316Z,10.40
2018-11-12T07:35:13.865Z,10.40
2018-11-12T07:37:43.188Z,10.40
2018-11-12T07:40:12.179Z,10.40
2018-11-12T07:42:40.847Z,10.40
2018-11-12T07:45:11.544Z,10.40
2018-11-12T07:47:40.483Z,10.40
2018-11-12T07:50:11.124Z,10.40
2018-11-12T07:52:39.563Z,10.40
2018-11-12T07:55:10.095Z,10.40
2018-11-12T07:57:38.475Z,10.40
2018-11-12T08:00:11.015Z,10.40
2018-11-12T08:02:40.160Z,10.40
2018-11-12T08:05:08.491Z,10.50
2018-11-12T08:07:36.872Z,10.50
2018-11-12T08:10:06.542Z,10.50
2018-11-12T08:12:34.888Z,10.50
2018-11-12T08:15:03.477Z,10.60
2018-11-12T08:17:32.273Z,10.60
2018-11-12T08:20:00.196Z,10.60
2018-11-12T08:22:28.545Z,10.60
2018-11-12T08:24:56.896Z,10.70
2018-11-12T08:27:25.384Z,10.70
2018-11-12T08:29:53.792Z,10.70
2018-11-12T08:32:22.079Z,10.60
2018-11-12T08:34:50.443Z,10.70
2018-11-12T08:37:18.819Z,10.70
2018-11-12T08:39:47.369Z,10.70
2018-11-12T08:42:15.508Z,10.70
2018-11-12T08:44:43.836Z,10.70
2018-11-12T08:47:12.228Z,10.80
2018-11-12T08:49:40.657Z,10.80
2018-11-12T08:52:09.332Z,10.80
2018-11-12T08:54:37.703Z,10.90
2018-11-12T08:57:06.068Z,10.90
2018-11-12T08:59:34.388Z,11.00
2018-11-12T09:02:02.699Z,11.00
2018-11-12T09:04:31.064Z,11.10
2018-11-12T09:06:59.445Z,11.10
2018-11-12T09:09:27.744Z,11.10
2018-11-12T09:11:56.063Z,11.20
2018-11-12T09:14:24.391Z,11.20
2018-11-12T09:16:52.730Z,11.20
2018-11-12T09:19:21.114Z,11.40
2018-11-12T09:21:49.401Z,11.40
2018-11-12T09:24:17.793Z,11.50
2018-11-12T09:26:46.087Z,11.50
2018-11-12T09:29:14.472Z,11.60
2018-11-12T09:31:42.764Z,11.60
2018-11-12T09:34:11.104Z,11.70
2018-11-12T09:36:39.488Z,11.70
2018-11-12T09:39:09.206Z,11.70
2018-11-12T09:41:37.591Z,11.70
2018-11-12T09:44:05.989Z,11.80
2018-11-12T09:46:34.280Z,11.80
2018-11-12T09:49:02.612Z,11.80
2018-11-12T09:51:30.972Z,11.80
2018-11-12T09:53:59.380Z,11.90
2018-11-12T09:56:27.597Z,11.90
2018-11-12T09:58:56.465Z,12.00
2018-11-12T10:01:25.201Z,12.00
2018-11-12T10:03:53.854Z,12.00
2018-11-12T10:06:23.206Z,12.00
2018-11-12T10:08:52.359Z,12.10
2018-11-12T10:11:20.064Z,12.10
2018-11-12T10:13:50.241Z,12.20
2018-11-12T10:16:17.920Z,12.20
2018-11-12T10:18:43.205Z,12.20
2018-11-12T10:21:11.544Z,12.30
2018-11-12T10:23:39.859Z,12.30
2018-11-12T10:26:08.195Z,12.40
2018-11-12T10:28:36.505Z,12.40
2018-11-12T10:31:04.846Z,12.50
2018-11-12T10:33:33.155Z,12.60
2018-11-12T10:36:01.501Z,12.70
2018-11-12T10:38:29.835Z,13.00
2018-11-12T10:40:58.235Z,13.20
2018-11-12T10:43:26.460Z,13.30
2018-11-12T10:45:54.787Z,13.40
2018-11-12T10:48:23.092Z,13.50
2018-11-12T10:50:56.375Z,13.40
2018-11-12T10:53:19.745Z,13.40
2018-11-12T10:55:48.275Z,13.40
2018-11-12T10:58:16.474Z,13.50
2018-11-12T11:00:50.175Z,13.60
2018-11-12T11:03:23.859Z,13.70
2018-11-12T11:05:53.251Z,13.80
2018-11-12T11:08:21.849Z,13.90
2018-11-12T11:10:50.175Z,14.20
2018-11-12T11:13:19.351Z,14.50
2018-11-12T11:15:47.672Z,14.90
2018-11-12T11:18:16.047Z,15.10
2018-11-12T11:20:44.462Z,15.20
2018-11-12T11:23:12.819Z,15.40
2018-11-12T11:25:41.182Z,15.70
2018-11-12T11:28:09.499Z,15.90
2018-11-12T11:30:37.855Z,15.90
2018-11-12T11:33:06.196Z,15.70
2018-11-12T11:35:34.511Z,15.60
2018-11-12T11:38:02.847Z,15.60
2018-11-12T11:40:31.193Z,15.50
2018-11-12T11:42:59.500Z,15.50
2018-11-12T11:45:27.825Z,15.50
2018-11-12T11:47:56.233Z,15.50
2018-11-12T11:50:25.816Z,15.60
2018-11-12T11:52:54.103Z,15.70
2018-11-12T11:55:23.545Z,15.80
2018-11-12T11:57:52.376Z,15.80
2018-11-12T12:00:23.092Z,15.80
2018-11-12T12:02:52.449Z,15.90
2018-11-12T12:05:21.574Z,15.90
2018-11-12T12:07:50.552Z,15.90
2018-11-12T12:10:18.862Z,15.90
2018-11-12T12:12:48.260Z,15.90
2018-11-12T12:15:17.979Z,15.90
2018-11-12T12:17:46.372Z,15.90
2018-11-12T12:20:18.278Z,16.00
2018-11-12T12:22:46.564Z,16.00
2018-11-12T12:25:16.074Z,16.10
2018-11-12T12:27:44.869Z,16.10
2018-11-12T12:30:15.661Z,16.00
2018-11-12T12:32:45.116Z,16.00
2018-11-12T12:35:13.929Z,16.00
2018-11-12T12:37:42.950Z,15.90
2018-11-12T12:40:12.963Z,15.90
2018-11-12T12:42:41.413Z,15.90
2018-11-12T12:45:11.331Z,15.90
2018-11-12T12:47:39.595Z,15.90
2018-11-12T12:50:09.400Z,15.90
2018-11-12T12:52:37.965Z,15.90
2018-11-12T12:55:06.861Z,15.90
2018-11-12T12:57:35.308Z,15.90
2018-11-12T13:00:04.546Z,16.00
2018-11-12T13:02:32.796Z,16.00
2018-11-12T13:05:02.567Z,16.10
2018-11-12T13:07:31.863Z,16.20
2018-11-12T13:10:00.371Z,16.10
2018-11-12T13:12:28.603Z,16.20
2018-11-12T13:14:57.024Z,16.30
2018-11-12T13:17:26.137Z,16.30
2018-11-12T13:19:54.484Z,16.30
2018-11-12T13:22:23.024Z,16.30
2018-11-12T13:24:51.698Z,16.30
2018-11-12T13:27:20.033Z,16.30
2018-11-12T13:29:48.531Z,16.30
2018-11-12T13:32:16.799Z,16.30
2018-11-12T13:34:45.113Z,16.30
2018-11-12T13:37:13.459Z,16.30
2018-11-12T13:39:41.823Z,16.40
2018-11-12T13:42:10.188Z,16.30
2018-11-12T13:44:38.627Z,16.30
2018-11-12T13:47:07.120Z,16.40
2018-11-12T13:49:35.628Z,16.40
2018-11-12T13:52:04.058Z,16.50
2018-11-12T13:54:32.400Z,16.80
2018-11-12T13:57:00.860Z,17.00
2018-11-12T13:59:29.329Z,17.10
2018-11-12T14:01:57.641Z,17.10
2018-11-12T14:04:25.955Z,17.10
2018-11-12T14:06:54.294Z,17.10
2018-11-12T14:09:22.632Z,17.00
2018-11-12T14:11:50.972Z,16.90
2018-11-12T14:14:19.303Z,16.90
2018-11-12T14:16:47.655Z,16.90
2018-11-12T14:19:15.979Z,16.80
2018-11-12T14:21:44.460Z,16.70
2018-11-12T14:24:12.649Z,16.70
2018-11-12T14:26:40.975Z,16.60
2018-11-12T14:29:09.314Z,16.60
2018-11-12T14:31:37.638Z,16.50
2018-11-12T14:34:06.036Z,16.50
2018-11-12T14:36:34.405Z,16.40
2018-11-12T14:39:02.797Z,16.30
2018-11-12T14:41:31.195Z,16.30
2018-11-12T14:43:59.505Z,16.30
2018-11-12T14:46:27.842Z,16.30
2018-11-12T14:48:56.181Z,16.30
2018-11-12T14:51:24.517Z,16.20
2018-11-12T14:53:52.852Z,16.20
2018-11-12T14:56:21.174Z,16.10
2018-11-12T14:58:49.519Z,16.00
2018-11-12T15:01:17.872Z,16.00
2018-11-12T15:03:48.399Z,15.90
2018-11-12T15:06:17.651Z,15.90
2018-11-12T15:08:46.058Z,15.80
2018-11-12T15:11:14.399Z,15.70
2018-11-12T15:13:42.822Z,15.60
2018-11-12T15:16:11.281Z,15.40
2018-11-12T15:18:39.693Z,15.20
2018-11-12T15:21:08.072Z,15.00
2018-11-12T15:23:36.331Z,14.90
2018-11-12T15:26:04.711Z,14.70
2018-11-12T15:28:33.067Z,14.60
2018-11-12T15:31:01.495Z,14.50
2018-11-12T15:33:32.799Z,14.40
2018-11-12T15:36:01.386Z,14.30
2018-11-12T15:38:29.798Z,14.20
2018-11-12T15:40:58.151Z,14.10
2018-11-12T15:43:26.461Z,14.10
2018-11-12T15:45:54.796Z,14.10
2018-11-12T15:48:23.126Z,14.10
2018-11-12T15:50:51.483Z,14.00
2018-11-12T15:53:19.790Z,14.00
2018-11-12T15:55:48.103Z,13.90
2018-11-12T15:58:16.513Z,13.90
2018-11-12T16:00:44.814Z,13.80
2018-11-12T16:03:13.119Z,13.70
2018-11-12T16:05:41.447Z,13.70
2018-11-12T16:08:09.815Z,13.60
2018-11-12T16:10:38.151Z,13.60
2018-11-12T16:13:06.453Z,13.50
2018-11-12T16:15:34.815Z,13.40
2018-11-12T16:18:03.138Z,13.40
2018-11-12T16:20:31.468Z,13.30
2018-11-12T16:23:00.840Z,13.20
2018-11-12T16:25:29.862Z,13.20
2018-11-12T16:27:59.411Z,13.10
2018-11-12T16:30:27.831Z,13.10
2018-11-12T16:32:57.376Z,13.10
2018-11-12T16:35:26.134Z,13.00
2018-11-12T16:37:55.131Z,13.00
2018-11-12T16:40:23.556Z,13.00
2018-11-12T16:42:51.941Z,13.00
2018-11-12T16:45:20.344Z,12.90
2018-11-12T16:47:48.787Z,12.90
2018-11-12T16:50:17.610Z,12.90
2018-11-12T16:52:46.160Z,12.80
2018-11-12T16:55:16.456Z,12.80
2018-11-12T16:57:45.012Z,12.80
2018-11-12T17:00:14.602Z,12.80
2018-11-12T17:02:43.534Z,12.70
2018-11-12T17:05:17.456Z,12.70
2018-11-12T17:07:46.075Z,12.70
2018-11-12T17:10:15.912Z,12.60
2018-11-12T17:12:45.224Z,12.60
2018-11-12T17:15:18.074Z,12.60
2018-11-12T17:17:46.624Z,12.50
2018-11-12T17:20:16.992Z,12.50
2018-11-12T17:22:45.331Z,12.50
2018-11-12T17:25:14.975Z,12.50
2018-11-12T17:27:44.038Z,12.50
2018-11-12T17:30:14.494Z,12.50
2018-11-12T17:32:43.444Z,12.40
2018-11-12T17:35:13.187Z,12.40
2018-11-12T17:37:41.440Z,12.30
2018-11-12T17:40:14.780Z,12.30
2018-11-12T17:42:43.785Z,12.30
2018-11-12T17:45:16.219Z,12.20
2018-11-12T17:47:46.751Z,12.20
2018-11-12T17:50:15.040Z,12.10
2018-11-12T17:52:43.338Z,12.10
2018-11-12T17:55:12.005Z,12.10
2018-11-12T17:57:40.298Z,12.00
2018-11-12T18:00:18.923Z,12.00
2018-11-12T18:02:47.693Z,12.00
2018-11-12T18:05:16.070Z,11.90
2018-11-12T18:07:44.578Z,11.90
2018-11-12T18:10:13.903Z,11.90
2018-11-12T18:12:42.675Z,11.80
2018-11-12T18:15:15.458Z,11.90
2018-11-12T18:17:44.037Z,11.80
2018-11-12T18:20:15.148Z,11.80
2018-11-12T18:22:44.249Z,11.70
2018-11-12T18:25:12.989Z,11.70
2018-11-12T18:27:41.240Z,11.70
2018-11-12T18:30:17.682Z,11.60
2018-11-12T18:32:46.957Z,11.60
2018-11-12T18:35:15.239Z,11.60
2018-11-12T18:37:43.837Z,11.50
2018-11-12T18:40:13.592Z,11.50
2018-11-12T18:43:00.378Z,11.50
2018-11-12T18:45:29.703Z,11.50
2018-11-12T18:47:59.087Z,11.40
2018-11-12T18:50:28.602Z,11.40
2018-11-12T18:52:57.027Z,11.40
2018-11-12T18:55:25.382Z,11.40
2018-11-12T18:57:54.149Z,11.40
2018-11-12T19:00:23.645Z,11.40
2018-11-12T19:02:52.224Z,11.40
2018-11-12T19:05:24.983Z,11.40
2018-11-12T19:07:54.320Z,11.40
2018-11-12T19:10:23.918Z,11.40
2018-11-12T19:12:52.519Z,11.30
2018-11-12T19:15:23.230Z,11.40
2018-11-12T19:17:53.819Z,11.30
2018-11-12T19:20:22.190Z,11.30
2018-11-12T19:22:50.851Z,11.20
2018-11-12T19:25:19.260Z,11.20
2018-11-12T19:27:47.948Z,11.20
2018-11-12T19:30:18.699Z,11.10
2018-11-12T19:32:47.083Z,11.10
2018-11-12T19:35:17.107Z,11.10
2018-11-12T19:37:45.735Z,11.00
2018-11-12T19:40:15.456Z,11.00
2018-11-12T19:42:44.604Z,11.00
2018-11-12T19:45:13.467Z,11.00
2018-11-12T19:47:42.362Z,11.00
2018-11-12T19:50:13.079Z,11.00
2018-11-12T19:52:43.531Z,10.90
2018-11-12T19:55:11.858Z,11.00
2018-11-12T19:57:40.393Z,10.90
2018-11-12T20:00:10.543Z,10.90
2018-11-12T20:02:38.905Z,11.00
2018-11-12T20:05:08.068Z,10.90
2018-11-12T20:07:36.686Z,10.90
2018-11-12T20:10:06.945Z,10.90
2018-11-12T20:12:35.256Z,10.90
2018-11-12T20:15:03.636Z,10.80
2018-11-12T20:17:32.348Z,10.80
2018-11-12T20:20:00.680Z,10.80
2018-11-12T20:22:29.002Z,10.70
2018-11-12T20:24:57.792Z,10.70
2018-11-12T20:27:26.182Z,10.70
2018-11-12T20:29:54.478Z,10.70
2018-11-12T20:32:22.766Z,10.70
2018-11-12T20:34:50.971Z,10.70
2018-11-12T20:37:19.322Z,10.70
2018-11-12T20:39:47.604Z,10.70
2018-11-12T20:42:15.878Z,10.70
2018-11-12T20:44:44.319Z,10.70
2018-11-12T20:47:12.732Z,10.60
2018-11-12T20:49:40.999Z,10.60
2018-11-12T20:52:09.321Z,10.50
2018-11-12T20:54:37.661Z,10.60
2018-11-12T20:57:05.929Z,10.50
2018-11-12T20:59:34.220Z,10.50
2018-11-12T21:02:02.467Z,10.50
2018-11-12T21:04:30.712Z,10.50
2018-11-12T21:06:58.979Z,10.50
2018-11-12T21:09:27.535Z,10.50
2018-11-12T21:11:55.891Z,10.50
2018-11-12T21:14:24.093Z,10.60
2018-11-12T21:16:52.644Z,10.50
2018-11-12T21:19:21.240Z,10.60
2018-11-12T21:21:49.436Z,10.60
2018-11-12T21:24:17.698Z,10.60
2018-11-12T21:26:45.950Z,10.60
2018-11-12T21:29:14.162Z,10.70
2018-11-12T21:31:42.607Z,10.70
2018-11-12T21:34:11.208Z,10.80
2018-11-12T21:36:39.571Z,10.70
2018-11-12T21:39:10.653Z,10.70
2018-11-12T21:41:39.007Z,10.70
2018-11-12T21:44:07.618Z,10.60
2018-11-12T21:46:35.954Z,10.70
2018-11-12T21:49:04.884Z,10.70
2018-11-12T21:51:33.132Z,10.70
2018-11-12T21:54:01.680Z,10.70
2018-11-12T21:56:29.836Z,10.70
2018-11-12T21:58:58.003Z,10.70
2018-11-12T22:01:26.493Z,10.80
2018-11-12T22:03:54.670Z,10.70
2018-11-12T22:06:22.847Z,10.70
2018-11-12T22:08:51.019Z,10.70
2018-11-12T22:11:19.204Z,10.70
2018-11-12T22:13:47.682Z,10.70
2018-11-12T22:16:15.859Z,10.60
2018-11-12T22:18:44.044Z,10.60
2018-11-12T22:21:12.208Z,10.60
2018-11-12T22:23:40.719Z,10.60
2018-11-12T22:26:08.953Z,10.60
2018-11-12T22:28:37.138Z,10.60
2018-11-12T22:31:05.387Z,10.60
2018-11-12T22:33:33.905Z,10.60
2018-11-12T22:36:02.064Z,10.60
2018-11-12T22:38:30.239Z,10.50
2018-11-12T22:40:58.397Z,10.50
2018-11-12T22:43:26.577Z,10.50
2018-11-12T22:45:54.773Z,10.40
2018-11-12T22:48:23.403Z,10.40
2018-11-12T22:50:51.905Z,10.40
2018-11-12T22:53:20.131Z,10.30
2018-11-12T22:55:48.749Z,10.20
2018-11-12T22:58:16.890Z,10.20
2018-11-12T23:00:45.174Z,10.20
2018-11-12T23:03:13.598Z,10.20
2018-11-12T23:05:41.771Z,10.20
2018-11-12T23:08:09.903Z,10.20
2018-11-12T23:10:38.074Z,10.20
2018-11-12T23:13:06.295Z,10.20
2018-11-12T23:15:34.466Z,10.20
2018-11-12T23:18:02.611Z,10.20
2018-11-12T23:20:31.225Z,10.10
2018-11-12T23:22:59.365Z,10.20
2018-11-12T23:25:27.547Z,10.20
2018-11-12T23:27:55.678Z,10.20
2018-11-12T23:30:24.898Z,10.20
2018-11-12T23:32:53.042Z,10.20
2018-11-12T23:35:22.570Z,10.20
2018-11-12T23:37:51.227Z,10.30
2018-11-12T23:40:19.380Z,10.20
2018-11-12T23:42:47.895Z,10.30
2018-11-12T23:45:16.060Z,10.30
2018-11-12T23:47:44.311Z,10.30
2018-11-12T23:50:17.989Z,10.30
2018-11-12T23:52:46.932Z,10.30
2018-11-12T23:55:15.319Z,10.30
2018-11-12T23:57:43.895Z,10.40
